sensor_id;sensor_type;location;lat;lon;timestamp;P1;durP1;ratioP1;P2;durP2;ratioP2
46266;SDS011;31998;48.798;15.066;2022-07-29T00:02:01;4.10;;;3.70;;
46266;SDS011;31998;48.798;15.066;2022-07-29T00:04:27;3.13;;;3.03;;
46266;SDS011;31998;48.798;15.066;2022-07-29T00:06:52;4.43;;;3.47;;
46266;SDS011;31998;48.798;15.066;2022-07-29T00:09:18;4.30;;;3.80;;
46266;SDS011;31998;48.798;15.066;2022-07-29T00:11:43;3.47;;;3.30;;
46266;SDS011;31998;48.798;15.066;2022-07-29T00:14:09;3.37;;;3.17;;
46266;SDS011;31998;48.798;15.066;2022-07-29T00:16:34;3.50;;;3.30;;
46266;SDS011;31998;48.798;15.066;2022-07-29T00:19:00;4.70;;;3.63;;
46266;SDS011;31998;48.798;15.066;2022-07-29T00:21:26;3.67;;;3.50;;
46266;SDS011;31998;48.798;15.066;2022-07-29T00:23:51;4.60;;;3.90;;
46266;SDS011;31998;48.798;15.066;2022-07-29T00:26:17;3.63;;;3.33;;
46266;SDS011;31998;48.798;15.066;2022-07-29T00:28:42;7.47;;;4.20;;
46266;SDS011;31998;48.798;15.066;2022-07-29T00:31:07;3.90;;;2.77;;
46266;SDS011;31998;48.798;15.066;2022-07-29T00:33:33;4.40;;;4.10;;
46266;SDS011;31998;48.798;15.066;2022-07-29T00:35:58;3.63;;;3.43;;
46266;SDS011;31998;48.798;15.066;2022-07-29T00:38:24;4.40;;;3.60;;
46266;SDS011;31998;48.798;15.066;2022-07-29T00:40:49;7.33;;;3.40;;
46266;SDS011;31998;48.798;15.066;2022-07-29T00:43:16;3.33;;;3.13;;
46266;SDS011;31998;48.798;15.066;2022-07-29T00:45:42;4.00;;;3.67;;
46266;SDS011;31998;48.798;15.066;2022-07-29T00:48:07;5.53;;;3.63;;
46266;SDS011;31998;48.798;15.066;2022-07-29T00:50:33;3.37;;;3.27;;
46266;SDS011;31998;48.798;15.066;2022-07-29T00:52:59;4.07;;;3.87;;
46266;SDS011;31998;48.798;15.066;2022-07-29T00:55:26;8.40;;;3.33;;
46266;SDS011;31998;48.798;15.066;2022-07-29T00:57:51;4.90;;;3.60;;
46266;SDS011;31998;48.798;15.066;2022-07-29T01:00:19;7.40;;;3.47;;
46266;SDS011;31998;48.798;15.066;2022-07-29T01:02:47;3.93;;;3.43;;
46266;SDS011;31998;48.798;15.066;2022-07-29T01:05:13;3.70;;;3.50;;
46266;SDS011;31998;48.798;15.066;2022-07-29T01:07:41;4.23;;;3.93;;
46266;SDS011;31998;48.798;15.066;2022-07-29T01:10:07;4.17;;;3.67;;
46266;SDS011;31998;48.798;15.066;2022-07-29T01:12:34;5.10;;;3.70;;
46266;SDS011;31998;48.798;15.066;2022-07-29T01:15:02;7.63;;;4.07;;
46266;SDS011;31998;48.798;15.066;2022-07-29T01:20:12;6.53;;;3.50;;
46266;SDS011;31998;48.798;15.066;2022-07-29T01:22:53;4.40;;;4.00;;
46266;SDS011;31998;48.798;15.066;2022-07-29T01:31:07;4.57;;;4.17;;
46266;SDS011;31998;48.798;15.066;2022-07-29T01:33:38;10.40;;;3.57;;
46266;SDS011;31998;48.798;15.066;2022-07-29T01:36:19;3.30;;;3.10;;
46266;SDS011;31998;48.798;15.066;2022-07-29T01:39:01;4.40;;;4.13;;
46266;SDS011;31998;48.798;15.066;2022-07-29T01:41:31;4.40;;;3.47;;
46266;SDS011;31998;48.798;15.066;2022-07-29T01:44:22;4.33;;;4.03;;
46266;SDS011;31998;48.798;15.066;2022-07-29T01:46:51;3.70;;;3.50;;
46266;SDS011;31998;48.798;15.066;2022-07-29T01:49:30;3.93;;;3.80;;
46266;SDS011;31998;48.798;15.066;2022-07-29T01:52:03;3.60;;;3.50;;
46266;SDS011;31998;48.798;15.066;2022-07-29T01:54:40;3.90;;;3.70;;
46266;SDS011;31998;48.798;15.066;2022-07-29T01:57:09;4.20;;;3.90;;
46266;SDS011;31998;48.798;15.066;2022-07-29T01:59:38;4.00;;;3.87;;
46266;SDS011;31998;48.798;15.066;2022-07-29T02:02:06;4.00;;;3.77;;
46266;SDS011;31998;48.798;15.066;2022-07-29T02:04:35;4.70;;;4.40;;
46266;SDS011;31998;48.798;15.066;2022-07-29T02:07:05;4.60;;;4.23;;
46266;SDS011;31998;48.798;15.066;2022-07-29T02:09:35;5.30;;;4.30;;
46266;SDS011;31998;48.798;15.066;2022-07-29T02:12:04;4.00;;;3.80;;
46266;SDS011;31998;48.798;15.066;2022-07-29T02:14:33;3.47;;;3.20;;
46266;SDS011;31998;48.798;15.066;2022-07-29T02:17:01;3.40;;;3.30;;
46266;SDS011;31998;48.798;15.066;2022-07-29T02:19:27;8.90;;;4.60;;
46266;SDS011;31998;48.798;15.066;2022-07-29T02:21:54;4.83;;;3.50;;
46266;SDS011;31998;48.798;15.066;2022-07-29T02:24:22;4.00;;;3.90;;
46266;SDS011;31998;48.798;15.066;2022-07-29T02:26:49;5.00;;;4.70;;
46266;SDS011;31998;48.798;15.066;2022-07-29T02:29:18;3.40;;;3.30;;
46266;SDS011;31998;48.798;15.066;2022-07-29T02:31:47;4.50;;;4.20;;
46266;SDS011;31998;48.798;15.066;2022-07-29T02:34:14;4.80;;;4.23;;
46266;SDS011;31998;48.798;15.066;2022-07-29T02:36:42;4.13;;;3.93;;
46266;SDS011;31998;48.798;15.066;2022-07-29T02:39:10;4.40;;;3.20;;
46266;SDS011;31998;48.798;15.066;2022-07-29T02:41:42;5.37;;;4.13;;
46266;SDS011;31998;48.798;15.066;2022-07-29T02:44:17;6.27;;;3.70;;
46266;SDS011;31998;48.798;15.066;2022-07-29T02:46:49;4.23;;;3.93;;
46266;SDS011;31998;48.798;15.066;2022-07-29T02:49:18;3.53;;;3.33;;
46266;SDS011;31998;48.798;15.066;2022-07-29T02:52:05;4.40;;;4.20;;
46266;SDS011;31998;48.798;15.066;2022-07-29T02:54:39;2.93;;;2.83;;
46266;SDS011;31998;48.798;15.066;2022-07-29T02:57:14;5.33;;;3.40;;
46266;SDS011;31998;48.798;15.066;2022-07-29T03:00:04;4.33;;;4.13;;
46266;SDS011;31998;48.798;15.066;2022-07-29T03:02:33;3.60;;;3.40;;
46266;SDS011;31998;48.798;15.066;2022-07-29T03:05:01;4.87;;;4.43;;
46266;SDS011;31998;48.798;15.066;2022-07-29T03:07:28;3.67;;;3.47;;
46266;SDS011;31998;48.798;15.066;2022-07-29T03:09:54;5.00;;;4.60;;
46266;SDS011;31998;48.798;15.066;2022-07-29T03:12:21;4.70;;;4.30;;
46266;SDS011;31998;48.798;15.066;2022-07-29T03:14:47;4.07;;;3.87;;
46266;SDS011;31998;48.798;15.066;2022-07-29T03:17:13;4.77;;;4.60;;
46266;SDS011;31998;48.798;15.066;2022-07-29T03:19:40;3.93;;;3.80;;
46266;SDS011;31998;48.798;15.066;2022-07-29T03:22:05;4.43;;;3.93;;
46266;SDS011;31998;48.798;15.066;2022-07-29T03:24:32;3.87;;;3.57;;
46266;SDS011;31998;48.798;15.066;2022-07-29T03:27:01;4.70;;;4.50;;
46266;SDS011;31998;48.798;15.066;2022-07-29T03:29:28;5.73;;;4.40;;
46266;SDS011;31998;48.798;15.066;2022-07-29T03:31:54;4.10;;;3.90;;
46266;SDS011;31998;48.798;15.066;2022-07-29T03:34:20;4.70;;;4.50;;
46266;SDS011;31998;48.798;15.066;2022-07-29T03:36:46;7.23;;;4.43;;
46266;SDS011;31998;48.798;15.066;2022-07-29T03:39:11;4.37;;;4.17;;
46266;SDS011;31998;48.798;15.066;2022-07-29T03:41:41;5.50;;;4.43;;
46266;SDS011;31998;48.798;15.066;2022-07-29T03:44:10;4.13;;;3.93;;
46266;SDS011;31998;48.798;15.066;2022-07-29T03:46:37;4.20;;;3.93;;
46266;SDS011;31998;48.798;15.066;2022-07-29T03:49:04;4.53;;;4.13;;
46266;SDS011;31998;48.798;15.066;2022-07-29T03:51:33;4.10;;;3.90;;
46266;SDS011;31998;48.798;15.066;2022-07-29T03:53:59;4.37;;;3.93;;
46266;SDS011;31998;48.798;15.066;2022-07-29T03:56:26;4.60;;;4.30;;
46266;SDS011;31998;48.798;15.066;2022-07-29T03:58:53;4.43;;;4.13;;
46266;SDS011;31998;48.798;15.066;2022-07-29T04:01:20;5.20;;;4.90;;
46266;SDS011;31998;48.798;15.066;2022-07-29T04:03:47;7.53;;;5.30;;
46266;SDS011;31998;48.798;15.066;2022-07-29T04:06:14;5.40;;;4.40;;
46266;SDS011;31998;48.798;15.066;2022-07-29T04:08:39;5.37;;;5.00;;
46266;SDS011;31998;48.798;15.066;2022-07-29T04:11:05;4.30;;;4.10;;
46266;SDS011;31998;48.798;15.066;2022-07-29T04:13:31;6.60;;;4.70;;
46266;SDS011;31998;48.798;15.066;2022-07-29T04:15:57;5.50;;;5.20;;
46266;SDS011;31998;48.798;15.066;2022-07-29T04:18:23;4.00;;;3.90;;
46266;SDS011;31998;48.798;15.066;2022-07-29T04:20:49;4.63;;;4.43;;
46266;SDS011;31998;48.798;15.066;2022-07-29T04:23:14;5.53;;;5.03;;
46266;SDS011;31998;48.798;15.066;2022-07-29T04:25:40;4.73;;;4.53;;
46266;SDS011;31998;48.798;15.066;2022-07-29T04:28:06;4.57;;;4.27;;
46266;SDS011;31998;48.798;15.066;2022-07-29T04:30:33;5.30;;;5.00;;
46266;SDS011;31998;48.798;15.066;2022-07-29T04:33:00;5.77;;;5.37;;
46266;SDS011;31998;48.798;15.066;2022-07-29T04:35:28;12.20;;;5.37;;
46266;SDS011;31998;48.798;15.066;2022-07-29T04:37:58;4.80;;;4.60;;
46266;SDS011;31998;48.798;15.066;2022-07-29T04:40:23;4.50;;;4.30;;
46266;SDS011;31998;48.798;15.066;2022-07-29T04:42:49;4.83;;;4.43;;
46266;SDS011;31998;48.798;15.066;2022-07-29T04:45:14;11.33;;;5.27;;
46266;SDS011;31998;48.798;15.066;2022-07-29T04:47:40;5.70;;;5.30;;
46266;SDS011;31998;48.798;15.066;2022-07-29T04:50:06;10.60;;;5.30;;
46266;SDS011;31998;48.798;15.066;2022-07-29T04:52:32;6.80;;;5.17;;
46266;SDS011;31998;48.798;15.066;2022-07-29T04:54:58;4.93;;;4.73;;
46266;SDS011;31998;48.798;15.066;2022-07-29T04:57:24;5.70;;;5.30;;
46266;SDS011;31998;48.798;15.066;2022-07-29T04:59:49;6.40;;;5.87;;
46266;SDS011;31998;48.798;15.066;2022-07-29T05:02:15;7.73;;;5.63;;
46266;SDS011;31998;48.798;15.066;2022-07-29T05:04:40;5.10;;;4.80;;
46266;SDS011;31998;48.798;15.066;2022-07-29T05:07:06;6.03;;;5.00;;
46266;SDS011;31998;48.798;15.066;2022-07-29T05:09:31;7.33;;;5.30;;
46266;SDS011;31998;48.798;15.066;2022-07-29T05:11:57;7.20;;;5.13;;
46266;SDS011;31998;48.798;15.066;2022-07-29T05:14:22;8.93;;;5.50;;
46266;SDS011;31998;48.798;15.066;2022-07-29T05:16:48;5.47;;;5.17;;
46266;SDS011;31998;48.798;15.066;2022-07-29T05:19:16;5.60;;;4.97;;
46266;SDS011;31998;48.798;15.066;2022-07-29T05:21:41;5.50;;;5.20;;
46266;SDS011;31998;48.798;15.066;2022-07-29T05:24:07;4.47;;;4.17;;
46266;SDS011;31998;48.798;15.066;2022-07-29T05:26:32;12.60;;;5.37;;
46266;SDS011;31998;48.798;15.066;2022-07-29T05:28:58;9.13;;;5.33;;
46266;SDS011;31998;48.798;15.066;2022-07-29T05:31:23;19.37;;;5.77;;
46266;SDS011;31998;48.798;15.066;2022-07-29T05:33:49;22.43;;;6.20;;
46266;SDS011;31998;48.798;15.066;2022-07-29T05:36:14;15.90;;;6.37;;
46266;SDS011;31998;48.798;15.066;2022-07-29T05:38:39;27.77;;;6.70;;
46266;SDS011;31998;48.798;15.066;2022-07-29T05:41:05;19.37;;;6.03;;
46266;SDS011;31998;48.798;15.066;2022-07-29T05:43:30;20.70;;;6.73;;
46266;SDS011;31998;48.798;15.066;2022-07-29T05:45:56;17.17;;;5.93;;
46266;SDS011;31998;48.798;15.066;2022-07-29T05:48:22;9.70;;;5.60;;
46266;SDS011;31998;48.798;15.066;2022-07-29T05:50:48;16.17;;;6.10;;
46266;SDS011;31998;48.798;15.066;2022-07-29T05:53:13;5.63;;;5.20;;
46266;SDS011;31998;48.798;15.066;2022-07-29T05:55:38;4.90;;;4.63;;
46266;SDS011;31998;48.798;15.066;2022-07-29T05:58:04;5.17;;;4.73;;
46266;SDS011;31998;48.798;15.066;2022-07-29T06:00:29;18.67;;;5.33;;
46266;SDS011;31998;48.798;15.066;2022-07-29T06:02:55;5.07;;;4.57;;
46266;SDS011;31998;48.798;15.066;2022-07-29T06:05:20;7.00;;;4.73;;
46266;SDS011;31998;48.798;15.066;2022-07-29T06:07:46;20.03;;;6.40;;
46266;SDS011;31998;48.798;15.066;2022-07-29T06:10:11;7.60;;;5.07;;
46266;SDS011;31998;48.798;15.066;2022-07-29T06:12:37;6.23;;;5.40;;
46266;SDS011;31998;48.798;15.066;2022-07-29T06:15:02;11.17;;;6.10;;
46266;SDS011;31998;48.798;15.066;2022-07-29T06:17:28;30.80;;;6.80;;
46266;SDS011;31998;48.798;15.066;2022-07-29T06:19:53;25.63;;;6.30;;
46266;SDS011;31998;48.798;15.066;2022-07-29T06:22:19;10.57;;;5.00;;
46266;SDS011;31998;48.798;15.066;2022-07-29T06:24:44;10.40;;;5.47;;
46266;SDS011;31998;48.798;15.066;2022-07-29T06:27:10;16.00;;;5.30;;
46266;SDS011;31998;48.798;15.066;2022-07-29T06:29:36;7.50;;;5.17;;
46266;SDS011;31998;48.798;15.066;2022-07-29T06:32:01;7.70;;;4.87;;
46266;SDS011;31998;48.798;15.066;2022-07-29T06:34:27;10.43;;;4.60;;
46266;SDS011;31998;48.798;15.066;2022-07-29T06:36:53;9.37;;;5.13;;
46266;SDS011;31998;48.798;15.066;2022-07-29T06:39:18;5.43;;;4.73;;
46266;SDS011;31998;48.798;15.066;2022-07-29T06:41:46;6.83;;;5.00;;
46266;SDS011;31998;48.798;15.066;2022-07-29T06:44:13;10.97;;;5.50;;
46266;SDS011;31998;48.798;15.066;2022-07-29T06:46:39;12.43;;;5.77;;
46266;SDS011;31998;48.798;15.066;2022-07-29T06:49:04;10.73;;;5.57;;
46266;SDS011;31998;48.798;15.066;2022-07-29T06:51:30;8.47;;;4.53;;
46266;SDS011;31998;48.798;15.066;2022-07-29T06:53:55;8.13;;;4.93;;
46266;SDS011;31998;48.798;15.066;2022-07-29T06:56:22;7.73;;;5.40;;
46266;SDS011;31998;48.798;15.066;2022-07-29T06:58:48;6.43;;;5.10;;
46266;SDS011;31998;48.798;15.066;2022-07-29T07:01:13;5.97;;;4.73;;
46266;SDS011;31998;48.798;15.066;2022-07-29T07:03:39;6.80;;;5.37;;
46266;SDS011;31998;48.798;15.066;2022-07-29T07:06:04;7.10;;;5.07;;
46266;SDS011;31998;48.798;15.066;2022-07-29T07:08:30;8.23;;;4.37;;
46266;SDS011;31998;48.798;15.066;2022-07-29T07:10:55;5.00;;;4.60;;
46266;SDS011;31998;48.798;15.066;2022-07-29T07:13:21;4.83;;;4.50;;
46266;SDS011;31998;48.798;15.066;2022-07-29T07:15:47;5.00;;;4.63;;
46266;SDS011;31998;48.798;15.066;2022-07-29T07:18:14;6.53;;;5.10;;
46266;SDS011;31998;48.798;15.066;2022-07-29T07:20:40;12.50;;;6.10;;
46266;SDS011;31998;48.798;15.066;2022-07-29T07:23:06;6.83;;;5.90;;
46266;SDS011;31998;48.798;15.066;2022-07-29T07:25:32;14.70;;;5.67;;
46266;SDS011;31998;48.798;15.066;2022-07-29T07:27:57;15.87;;;6.83;;
46266;SDS011;31998;48.798;15.066;2022-07-29T07:30:23;5.73;;;5.00;;
46266;SDS011;31998;48.798;15.066;2022-07-29T07:32:48;5.87;;;5.37;;
46266;SDS011;31998;48.798;15.066;2022-07-29T07:35:14;7.77;;;4.93;;
46266;SDS011;31998;48.798;15.066;2022-07-29T07:37:39;7.43;;;5.83;;
46266;SDS011;31998;48.798;15.066;2022-07-29T07:40:08;7.43;;;4.80;;
46266;SDS011;31998;48.798;15.066;2022-07-29T07:42:36;13.80;;;4.60;;
46266;SDS011;31998;48.798;15.066;2022-07-29T07:45:02;4.93;;;4.73;;
46266;SDS011;31998;48.798;15.066;2022-07-29T07:47:28;12.33;;;4.80;;
46266;SDS011;31998;48.798;15.066;2022-07-29T07:49:53;6.83;;;4.50;;
46266;SDS011;31998;48.798;15.066;2022-07-29T07:52:19;5.00;;;4.60;;
46266;SDS011;31998;48.798;15.066;2022-07-29T07:54:46;5.30;;;5.00;;
46266;SDS011;31998;48.798;15.066;2022-07-29T07:57:12;5.70;;;5.30;;
46266;SDS011;31998;48.798;15.066;2022-07-29T07:59:38;7.73;;;4.97;;
46266;SDS011;31998;48.798;15.066;2022-07-29T08:02:04;5.53;;;4.43;;
46266;SDS011;31998;48.798;15.066;2022-07-29T08:04:31;5.33;;;4.60;;
46266;SDS011;31998;48.798;15.066;2022-07-29T08:06:57;5.50;;;5.00;;
46266;SDS011;31998;48.798;15.066;2022-07-29T08:09:23;9.03;;;3.87;;
46266;SDS011;31998;48.798;15.066;2022-07-29T08:11:50;4.87;;;4.47;;
46266;SDS011;31998;48.798;15.066;2022-07-29T08:14:16;5.27;;;4.87;;
46266;SDS011;31998;48.798;15.066;2022-07-29T08:16:42;6.87;;;4.57;;
46266;SDS011;31998;48.798;15.066;2022-07-29T08:19:08;5.20;;;4.70;;
46266;SDS011;31998;48.798;15.066;2022-07-29T08:21:34;5.73;;;5.30;;
46266;SDS011;31998;48.798;15.066;2022-07-29T08:24:00;5.47;;;5.00;;
46266;SDS011;31998;48.798;15.066;2022-07-29T08:26:44;5.80;;;5.37;;
46266;SDS011;31998;48.798;15.066;2022-07-29T08:29:10;8.43;;;4.37;;
46266;SDS011;31998;48.798;15.066;2022-07-29T08:31:36;5.60;;;5.10;;
46266;SDS011;31998;48.798;15.066;2022-07-29T08:34:02;5.33;;;4.90;;
46266;SDS011;31998;48.798;15.066;2022-07-29T08:36:28;6.10;;;4.47;;
46266;SDS011;31998;48.798;15.066;2022-07-29T08:38:54;7.17;;;5.27;;
46266;SDS011;31998;48.798;15.066;2022-07-29T08:41:20;5.27;;;4.97;;
46266;SDS011;31998;48.798;15.066;2022-07-29T08:43:47;5.30;;;5.00;;
46266;SDS011;31998;48.798;15.066;2022-07-29T08:46:13;5.70;;;5.07;;
46266;SDS011;31998;48.798;15.066;2022-07-29T08:48:39;6.70;;;5.33;;
46266;SDS011;31998;48.798;15.066;2022-07-29T08:51:06;5.40;;;5.00;;
46266;SDS011;31998;48.798;15.066;2022-07-29T08:53:32;5.10;;;4.70;;
46266;SDS011;31998;48.798;15.066;2022-07-29T08:55:58;6.27;;;5.37;;
46266;SDS011;31998;48.798;15.066;2022-07-29T08:58:24;4.93;;;4.63;;
46266;SDS011;31998;48.798;15.066;2022-07-29T09:00:52;5.53;;;4.90;;
46266;SDS011;31998;48.798;15.066;2022-07-29T09:03:19;6.10;;;5.67;;
46266;SDS011;31998;48.798;15.066;2022-07-29T09:05:47;5.50;;;5.10;;
46266;SDS011;31998;48.798;15.066;2022-07-29T09:08:16;6.80;;;5.00;;
46266;SDS011;31998;48.798;15.066;2022-07-29T09:10:42;4.90;;;4.70;;
46266;SDS011;31998;48.798;15.066;2022-07-29T09:13:09;8.70;;;5.40;;
46266;SDS011;31998;48.798;15.066;2022-07-29T09:15:34;5.70;;;5.20;;
46266;SDS011;31998;48.798;15.066;2022-07-29T09:18:00;12.83;;;5.20;;
46266;SDS011;31998;48.798;15.066;2022-07-29T09:20:26;5.10;;;4.80;;
46266;SDS011;31998;48.798;15.066;2022-07-29T09:23:11;7.83;;;5.87;;
46266;SDS011;31998;48.798;15.066;2022-07-29T09:25:38;11.23;;;5.37;;
46266;SDS011;31998;48.798;15.066;2022-07-29T09:28:06;8.30;;;6.10;;
46266;SDS011;31998;48.798;15.066;2022-07-29T09:30:35;5.97;;;5.27;;
46266;SDS011;31998;48.798;15.066;2022-07-29T09:33:01;5.90;;;4.90;;
46266;SDS011;31998;48.798;15.066;2022-07-29T09:35:28;6.73;;;4.93;;
46266;SDS011;31998;48.798;15.066;2022-07-29T09:37:54;5.90;;;5.37;;
46266;SDS011;31998;48.798;15.066;2022-07-29T09:40:21;5.83;;;5.00;;
46266;SDS011;31998;48.798;15.066;2022-07-29T09:42:52;5.63;;;5.23;;
46266;SDS011;31998;48.798;15.066;2022-07-29T09:45:30;6.43;;;5.70;;
46266;SDS011;31998;48.798;15.066;2022-07-29T09:47:59;6.60;;;5.67;;
46266;SDS011;31998;48.798;15.066;2022-07-29T09:50:40;5.33;;;5.00;;
46266;SDS011;31998;48.798;15.066;2022-07-29T09:53:07;6.43;;;5.93;;
46266;SDS011;31998;48.798;15.066;2022-07-29T09:55:51;5.93;;;5.33;;
46266;SDS011;31998;48.798;15.066;2022-07-29T09:58:18;6.93;;;6.03;;
46266;SDS011;31998;48.798;15.066;2022-07-29T10:00:44;5.37;;;5.07;;
46266;SDS011;31998;48.798;15.066;2022-07-29T10:03:11;7.23;;;5.87;;
46266;SDS011;31998;48.798;15.066;2022-07-29T10:05:38;7.00;;;4.63;;
46266;SDS011;31998;48.798;15.066;2022-07-29T10:08:04;6.27;;;5.77;;
46266;SDS011;31998;48.798;15.066;2022-07-29T10:10:34;7.60;;;5.17;;
46266;SDS011;31998;48.798;15.066;2022-07-29T10:13:02;12.27;;;5.40;;
46266;SDS011;31998;48.798;15.066;2022-07-29T10:15:30;5.33;;;4.90;;
46266;SDS011;31998;48.798;15.066;2022-07-29T10:17:57;5.43;;;5.03;;
46266;SDS011;31998;48.798;15.066;2022-07-29T10:20:24;5.27;;;4.97;;
46266;SDS011;31998;48.798;15.066;2022-07-29T10:22:51;5.33;;;4.83;;
46266;SDS011;31998;48.798;15.066;2022-07-29T10:25:18;5.90;;;4.80;;
46266;SDS011;31998;48.798;15.066;2022-07-29T10:27:45;4.83;;;4.43;;
46266;SDS011;31998;48.798;15.066;2022-07-29T10:30:13;5.60;;;5.00;;
46266;SDS011;31998;48.798;15.066;2022-07-29T10:32:44;6.50;;;4.80;;
46266;SDS011;31998;48.798;15.066;2022-07-29T10:35:21;5.53;;;5.23;;
46266;SDS011;31998;48.798;15.066;2022-07-29T10:43:31;10.77;;;5.40;;
46266;SDS011;31998;48.798;15.066;2022-07-29T10:46:01;8.43;;;4.67;;
46266;SDS011;31998;48.798;15.066;2022-07-29T10:48:28;5.13;;;4.67;;
46266;SDS011;31998;48.798;15.066;2022-07-29T10:51:04;5.67;;;5.20;;
46266;SDS011;31998;48.798;15.066;2022-07-29T10:56:28;5.23;;;4.83;;
46266;SDS011;31998;48.798;15.066;2022-07-29T11:01:45;6.00;;;4.87;;
46266;SDS011;31998;48.798;15.066;2022-07-29T11:04:12;5.27;;;4.87;;
46266;SDS011;31998;48.798;15.066;2022-07-29T11:07:22;5.27;;;4.80;;
46266;SDS011;31998;48.798;15.066;2022-07-29T11:09:23;5.53;;;4.90;;
46266;SDS011;31998;48.798;15.066;2022-07-29T11:11:49;6.53;;;4.90;;
46266;SDS011;31998;48.798;15.066;2022-07-29T11:14:14;6.57;;;4.60;;
46266;SDS011;31998;48.798;15.066;2022-07-29T11:16:58;5.00;;;4.60;;
46266;SDS011;31998;48.798;15.066;2022-07-29T11:19:26;4.50;;;4.30;;
46266;SDS011;31998;48.798;15.066;2022-07-29T11:21:51;9.27;;;5.70;;
46266;SDS011;31998;48.798;15.066;2022-07-29T11:24:21;18.23;;;5.47;;
46266;SDS011;31998;48.798;15.066;2022-07-29T11:27:08;6.40;;;5.00;;
46266;SDS011;31998;48.798;15.066;2022-07-29T11:29:55;5.13;;;4.83;;
46266;SDS011;31998;48.798;15.066;2022-07-29T11:32:23;7.13;;;5.60;;
46266;SDS011;31998;48.798;15.066;2022-07-29T11:43:49;6.30;;;5.30;;
46266;SDS011;31998;48.798;15.066;2022-07-29T11:49:18;6.13;;;5.03;;
46266;SDS011;31998;48.798;15.066;2022-07-29T11:51:55;8.73;;;4.10;;
46266;SDS011;31998;48.798;15.066;2022-07-29T11:54:40;5.87;;;4.93;;
46266;SDS011;31998;48.798;15.066;2022-07-29T11:57:07;10.73;;;5.20;;
46266;SDS011;31998;48.798;15.066;2022-07-29T11:59:42;5.10;;;4.73;;
46266;SDS011;31998;48.798;15.066;2022-07-29T12:02:09;8.20;;;5.47;;
46266;SDS011;31998;48.798;15.066;2022-07-29T12:04:51;4.80;;;4.37;;
46266;SDS011;31998;48.798;15.066;2022-07-29T12:07:17;5.20;;;4.90;;
46266;SDS011;31998;48.798;15.066;2022-07-29T12:09:50;6.37;;;5.07;;
46266;SDS011;31998;48.798;15.066;2022-07-29T12:12:17;5.87;;;4.60;;
46266;SDS011;31998;48.798;15.066;2022-07-29T12:14:42;4.60;;;4.13;;
46266;SDS011;31998;48.798;15.066;2022-07-29T12:17:33;5.10;;;4.70;;
46266;SDS011;31998;48.798;15.066;2022-07-29T12:20:01;4.37;;;4.07;;
46266;SDS011;31998;48.798;15.066;2022-07-29T12:22:31;5.00;;;4.47;;
46266;SDS011;31998;48.798;15.066;2022-07-29T12:25:02;5.13;;;4.77;;
46266;SDS011;31998;48.798;15.066;2022-07-29T12:27:30;5.93;;;5.10;;
46266;SDS011;31998;48.798;15.066;2022-07-29T12:30:00;5.27;;;4.90;;
46266;SDS011;31998;48.798;15.066;2022-07-29T12:32:46;4.70;;;4.23;;
46266;SDS011;31998;48.798;15.066;2022-07-29T12:35:13;6.20;;;4.30;;
46266;SDS011;31998;48.798;15.066;2022-07-29T12:37:41;5.10;;;4.70;;
46266;SDS011;31998;48.798;15.066;2022-07-29T12:40:08;4.73;;;4.40;;
46266;SDS011;31998;48.798;15.066;2022-07-29T12:42:35;8.40;;;4.53;;
46266;SDS011;31998;48.798;15.066;2022-07-29T12:45:02;5.07;;;4.60;;
46266;SDS011;31998;48.798;15.066;2022-07-29T12:47:28;5.07;;;4.77;;
46266;SDS011;31998;48.798;15.066;2022-07-29T12:50:27;9.37;;;4.77;;
46266;SDS011;31998;48.798;15.066;2022-07-29T12:52:45;4.70;;;4.50;;
46266;SDS011;31998;48.798;15.066;2022-07-29T12:55:11;5.40;;;5.10;;
46266;SDS011;31998;48.798;15.066;2022-07-29T12:57:49;8.17;;;4.10;;
46266;SDS011;31998;48.798;15.066;2022-07-29T13:00:21;5.63;;;4.60;;
46266;SDS011;31998;48.798;15.066;2022-07-29T13:02:56;5.67;;;5.00;;
46266;SDS011;31998;48.798;15.066;2022-07-29T13:05:22;7.37;;;4.57;;
46266;SDS011;31998;48.798;15.066;2022-07-29T13:07:49;8.53;;;4.60;;
46266;SDS011;31998;48.798;15.066;2022-07-29T13:10:19;4.60;;;4.20;;
46266;SDS011;31998;48.798;15.066;2022-07-29T13:13:02;4.50;;;4.30;;
46266;SDS011;31998;48.798;15.066;2022-07-29T13:15:33;4.80;;;4.43;;
46266;SDS011;31998;48.798;15.066;2022-07-29T13:18:00;4.40;;;4.20;;
46266;SDS011;31998;48.798;15.066;2022-07-29T13:20:26;5.47;;;4.97;;
46266;SDS011;31998;48.798;15.066;2022-07-29T13:22:54;6.30;;;4.70;;
46266;SDS011;31998;48.798;15.066;2022-07-29T13:25:25;4.60;;;4.37;;
46266;SDS011;31998;48.798;15.066;2022-07-29T13:27:55;4.80;;;4.47;;
46266;SDS011;31998;48.798;15.066;2022-07-29T13:30:21;4.37;;;4.17;;
46266;SDS011;31998;48.798;15.066;2022-07-29T13:32:48;5.03;;;4.73;;
46266;SDS011;31998;48.798;15.066;2022-07-29T13:35:13;4.20;;;4.00;;
46266;SDS011;31998;48.798;15.066;2022-07-29T13:37:39;4.67;;;4.23;;
46266;SDS011;31998;48.798;15.066;2022-07-29T13:40:08;7.90;;;5.10;;
46266;SDS011;31998;48.798;15.066;2022-07-29T13:42:35;5.40;;;4.60;;
46266;SDS011;31998;48.798;15.066;2022-07-29T13:45:00;5.50;;;4.60;;
46266;SDS011;31998;48.798;15.066;2022-07-29T13:47:26;4.70;;;4.30;;
46266;SDS011;31998;48.798;15.066;2022-07-29T13:49:53;4.30;;;3.90;;
46266;SDS011;31998;48.798;15.066;2022-07-29T13:52:19;8.10;;;4.17;;
46266;SDS011;31998;48.798;15.066;2022-07-29T13:54:45;5.27;;;4.63;;
46266;SDS011;31998;48.798;15.066;2022-07-29T13:57:11;6.43;;;4.20;;
46266;SDS011;31998;48.798;15.066;2022-07-29T13:59:38;4.60;;;4.30;;
46266;SDS011;31998;48.798;15.066;2022-07-29T14:02:07;5.20;;;3.87;;
46266;SDS011;31998;48.798;15.066;2022-07-29T14:04:33;5.83;;;4.47;;
46266;SDS011;31998;48.798;15.066;2022-07-29T14:06:58;4.43;;;4.00;;
46266;SDS011;31998;48.798;15.066;2022-07-29T14:09:24;5.03;;;3.90;;
46266;SDS011;31998;48.798;15.066;2022-07-29T14:11:49;4.63;;;4.33;;
46266;SDS011;31998;48.798;15.066;2022-07-29T14:14:16;3.97;;;3.70;;
46266;SDS011;31998;48.798;15.066;2022-07-29T14:16:41;4.00;;;3.67;;
46266;SDS011;31998;48.798;15.066;2022-07-29T14:19:07;4.40;;;4.30;;
46266;SDS011;31998;48.798;15.066;2022-07-29T14:21:32;4.20;;;4.00;;
46266;SDS011;31998;48.798;15.066;2022-07-29T14:23:59;4.13;;;3.70;;
46266;SDS011;31998;48.798;15.066;2022-07-29T14:26:25;4.30;;;3.90;;
46266;SDS011;31998;48.798;15.066;2022-07-29T14:28:50;3.93;;;3.73;;
46266;SDS011;31998;48.798;15.066;2022-07-29T14:31:16;3.57;;;3.37;;
46266;SDS011;31998;48.798;15.066;2022-07-29T14:33:41;4.90;;;3.90;;
46266;SDS011;31998;48.798;15.066;2022-07-29T14:36:07;4.70;;;4.30;;
46266;SDS011;31998;48.798;15.066;2022-07-29T14:38:34;4.27;;;4.17;;
46266;SDS011;31998;48.798;15.066;2022-07-29T14:41:00;4.27;;;3.90;;
46266;SDS011;31998;48.798;15.066;2022-07-29T14:43:25;3.90;;;3.70;;
46266;SDS011;31998;48.798;15.066;2022-07-29T14:45:51;9.00;;;4.10;;
46266;SDS011;31998;48.798;15.066;2022-07-29T14:48:16;5.93;;;4.23;;
46266;SDS011;31998;48.798;15.066;2022-07-29T14:50:42;3.80;;;3.60;;
46266;SDS011;31998;48.798;15.066;2022-07-29T14:53:07;3.87;;;3.77;;
46266;SDS011;31998;48.798;15.066;2022-07-29T14:55:32;5.80;;;4.57;;
46266;SDS011;31998;48.798;15.066;2022-07-29T14:57:58;5.30;;;4.10;;
46266;SDS011;31998;48.798;15.066;2022-07-29T15:00:24;4.00;;;3.70;;
46266;SDS011;31998;48.798;15.066;2022-07-29T15:02:51;3.63;;;3.40;;
46266;SDS011;31998;48.798;15.066;2022-07-29T15:05:17;3.27;;;3.07;;
46266;SDS011;31998;48.798;15.066;2022-07-29T15:07:42;3.87;;;3.77;;
46266;SDS011;31998;48.798;15.066;2022-07-29T15:10:08;4.10;;;3.23;;